Mount Pleasant, SC (29464)

12:21 AM EST on December 08, 2016 (GMT -0500)
| | Change Station
Active Advisory: Special Statement

Elev -9999 ft 0.00 °N, 0.00 °E | Updated 3 minutes ago

Overcast
Overcast
°F
Feels Like °F
N
Wind Variable Wind from North
Gusts mph

Today
High -- | Low -- °F
--% Chance of Precip.
Yesterday
High -- | Low -- °F
Precip. -- in
Pressure 30.09 in
Visibility 6.0 miles
Clouds Overcast 3400 ft
Dew Point Not available.
Humidity Not available.
Rainfall --
Snow Depth Not available.
7:09 AM 5:13 PM
First Quarter, 59% visible
METAR KCHS 080456Z 00000KT 6SM BR OVC034 12/10 A3009 RMK AO2 SLP188 T01170100 401670100
Pressure 30.09 in
Visibility 6.0 miles
Clouds Overcast 3400 ft
Dew Point Not available.
Humidity Not available.
Rainfall --
Snow Depth Not available.
7:09 AM 5:13 PM
First Quarter, 59% visible
METAR KCHS 080456Z 00000KT 6SM BR OVC034 12/10 A3009 RMK AO2 SLP188 T01170100 401670100

10-Day Weather Forecast

Almanac

Astronomy

Dec. 08, 2016 Rise Set
Actual Time
Civil Twilight
Nautical Twilight
Astronomical Twilight
Moon
Length of Visible Light
Length of Day
Tomorrow will be .
, % of the Moon is Illuminated

Today's Extremes

State Highs State Lows

Community

WunderPhotos

Upload Photos

1,956,259 photos uploaded!

WunderBlog® & News

Nearby

Air Quality

  Air Quality AQ Index Pollutant
Not available.

Snow Depth

Station Depth Elevation

Earthquake Activity

City Distance Mag. Time & Date
Minimum magnitude displayed is 2.5.

Coastal Water Temperatures

Place Temperature

Stations

Nearby Weather Stations

Station Location Temp. Windchill Dew Point Humidity Wind Precip. Elev Updated Type
                   

Watches & Warnings

Special Statement
Issued: 9:33 PM EST Dec. 7, 2016 – National Weather Service

... Locally dense fog developing...

Patchy fog will continue to develop across much of southeast South
Carolina and a small portion of interior southeast Georgia through
1 am. The fog will be locally dense at times with visibilities
dropping to 1/4 mile or less. The risk for dense fog will be the
greatest near low lying areas such as swamps, rivers, marshes and
large ditches.

Precautionary/preparedness actions...

The nature of the fog is such that visibilities will vary greatly
over short distances. Be sure to leave plenty of room between you
and neighboring vehicles while driving.



933 PM EST Wed Dec 7 2016

... Locally dense fog developing...

Patchy fog will continue to develop across much of southeast South
Carolina and a small portion of interior southeast Georgia through
1 am. The fog will be locally dense at times with visibilities
dropping to 1/4 mile or less. The risk for dense fog will be the
greatest near low lying areas such as swamps, rivers, marshes and
large ditches.

Precautionary/preparedness actions...

The nature of the fog is such that visibilities will vary greatly
over short distances. Be sure to leave plenty of room between you
and neighboring vehicles while driving.